Time;durP1;ratioP1;P1;durP2;ratioP2;P2;SDS_P1;SDS_P2;PMS_P1;PMS_P2;Temp;Humidity;BMP_temperature;BMP_pressure;BME280_temperature;BME280_humidity;BME280_pressure;Samples;Min_cycle;Max_cycle;Signal;HPM_P1;HPM_P2
2021/11/17 02:28:19;;;;;;;10.23;4.97;;;;;;;3.44;88.72;100601.50;4970527;28;20062;-65
2021/11/17 02:31:34;;;;;;;15.55;6.03;;;;;;;3.38;89.28;100608.00;4969342;28;20524;-63
2021/11/17 02:34:32;;;;;;;15.27;6.25;;;;;;;3.31;89.50;100600.50;4971332;28;20062;-63
2021/11/17 02:37:32;;;;;;;11.90;5.93;;;;;;;3.25;90.26;100599.06;4971453;28;20058;-66
2021/11/17 02:40:48;;;;;;;13.77;6.50;;;;;;;3.43;89.68;100610.38;4969740;28;20069;-62
2021/11/17 02:43:47;;;;;;;10.43;5.05;;;;;;;3.43;89.82;100611.28;4965729;28;20078;-64
2021/11/17 02:46:55;;;;;;;11.70;6.10;;;;;;;3.58;88.54;100606.84;4969798;28;20066;-63
2021/11/17 02:49:52;;;;;;;12.93;6.32;;;;;;;3.55;89.21;100601.72;4971154;28;20200;-61
2021/11/17 02:52:53;;;;;;;13.30;6.53;;;;;;;3.34;89.54;100593.22;4971256;28;20081;-63
2021/11/17 02:55:54;;;;;;;16.52;5.80;;;;;;;3.48;89.86;100592.41;4971095;28;20109;-68
2021/11/17 02:58:57;;;;;;;10.63;5.55;;;;;;;3.31;90.54;100593.38;4971209;28;20357;-63
2021/11/17 03:01:57;;;;;;;13.93;6.05;;;;;;;3.18;90.61;100589.75;4970266;28;20090;-61
2021/11/17 03:05:10;;;;;;;13.32;5.90;;;;;;;3.14;91.79;100591.72;4970259;28;20409;-62
2021/11/17 03:08:11;;;;;;;11.52;5.80;;;;;;;3.22;92.07;100591.28;4970090;28;20057;-62
2021/11/17 03:11:13;;;;;;;11.93;5.57;;;;;;;3.15;91.48;100592.56;4970394;28;20066;-65
2021/11/17 03:14:16;;;;;;;12.57;5.50;;;;;;;3.12;92.18;100588.31;4969492;28;20077;-61
2021/11/17 03:17:17;;;;;;;11.77;5.95;;;;;;;3.12;92.56;100588.31;4967353;28;20509;-62
2021/11/17 03:20:20;;;;;;;14.77;6.65;;;;;;;3.05;93.09;100589.59;4968595;28;20058;-65
2021/11/17 03:23:28;;;;;;;13.13;5.10;;;;;;;3.07;92.29;100590.34;4970465;28;20058;-62
2021/11/17 03:26:25;;;;;;;18.75;6.32;;;;;;;3.06;92.75;100593.94;4967854;28;20517;-64
2021/11/17 03:29:29;;;;;;;12.23;5.40;;;;;;;3.00;93.18;100593.47;4969140;28;20062;-65
2021/11/17 03:32:30;;;;;;;8.98;4.20;;;;;;;3.06;92.91;100593.94;4966361;28;20520;-63
2021/11/17 03:35:38;;;;;;;10.55;4.88;;;;;;;3.01;92.84;100593.38;4965654;28;20175;-63
2021/11/17 03:38:47;;;;;;;12.15;5.13;;;;;;;3.00;92.75;100590.81;4971479;28;20432;-64
2021/11/17 03:41:57;;;;;;;17.25;6.68;;;;;;;2.97;93.76;100586.56;4970037;28;20058;-62
2021/11/17 03:45:08;;;;;;;11.25;5.20;;;;;;;3.00;94.33;100588.16;4964333;28;20477;-63
2021/11/17 03:48:09;;;;;;;13.82;5.63;;;;;;;2.99;93.71;100587.31;4963902;28;20062;-63
2021/11/17 03:51:14;;;;;;;13.60;6.10;;;;;;;2.91;93.93;100576.28;4971374;28;20089;-63
2021/11/17 03:54:14;;;;;;;11.57;5.18;;;;;;;2.94;93.95;100578.75;4965838;28;20054;-64
2021/11/17 03:57:24;;;;;;;9.85;4.60;;;;;;;3.00;93.95;100582.88;4970610;28;20062;-62
2021/11/17 04:00:37;;;;;;;12.13;4.93;;;;;;;3.01;94.13;100577.47;4971452;28;20058;-61
2021/11/17 04:03:39;;;;;;;11.73;5.18;;;;;;;2.99;93.71;100576.72;4965709;28;20057;-65
2021/11/17 04:06:37;;;;;;;10.38;4.82;;;;;;;3.00;94.27;100585.50;4960728;28;20066;-63
2021/11/17 04:09:37;;;;;;;14.07;6.05;;;;;;;3.01;93.06;100580.13;4969467;28;20210;-64
2021/11/17 04:12:41;;;;;;;11.48;5.57;;;;;;;3.05;93.56;100583.44;4971232;28;20568;-66
2021/11/17 04:15:45;;;;;;;9.85;5.00;;;;;;;3.08;93.72;100593.88;4971269;28;20058;-65
2021/11/17 04:18:43;;;;;;;12.10;4.97;;;;;;;3.05;94.04;100597.56;4970037;28;20420;-64
2021/11/17 04:21:50;;;;;;;12.70;5.22;;;;;;;3.08;93.64;100586.78;4974613;28;20062;-64
2021/11/17 04:24:53;;;;;;;13.73;5.53;;;;;;;3.10;92.69;100589.34;4966840;28;20760;-64
2021/11/17 04:27:51;;;;;;;19.40;6.20;;;;;;;2.90;94.57;100588.69;4969440;28;20117;-64
2021/11/17 04:31:04;;;;;;;13.93;6.20;;;;;;;2.85;94.92;100589.91;4973453;28;20057;-66
2021/11/17 04:34:07;;;;;;;13.88;6.25;;;;;;;2.82;95.63;100585.59;4969620;28;20150;-64
2021/11/17 04:37:08;;;;;;;9.70;5.47;;;;;;;2.81;94.95;100588.34;4974673;28;20058;-62
2021/11/17 04:40:19;;;;;;;15.98;6.45;;;;;;;2.79;95.05;100584.94;4966951;28;20075;-64
2021/11/17 04:43:23;;;;;;;12.18;7.10;;;;;;;2.74;95.73;100584.34;4969732;28;20057;-63
2021/11/17 04:46:26;;;;;;;17.30;6.28;;;;;;;2.71;95.95;100579.19;4970132;28;20057;-65
2021/11/17 04:49:34;;;;;;;12.10;5.75;;;;;;;2.72;95.93;100572.94;4968764;28;20061;-64
2021/11/17 04:52:32;;;;;;;12.88;6.20;;;;;;;2.74;96.00;100571.94;4971746;28;20058;-65
2021/11/17 04:55:30;;;;;;;13.00;6.18;;;;;;;2.77;96.01;100578.88;4972086;28;20093;-65
2021/11/17 04:58:37;;;;;;;15.73;6.82;;;;;;;2.81;95.93;100575.09;4971536;28;20174;-68
2021/11/17 05:01:45;;;;;;;13.93;5.78;;;;;;;2.81;95.17;100573.28;4972884;28;20057;-66
2021/11/17 05:04:43;;;;;;;17.17;6.53;;;;;;;2.85;94.78;100579.28;4972092;28;20069;-64
2021/11/17 05:07:41;;;;;;;14.60;5.82;;;;;;;2.91;94.84;100576.28;4970875;28;20061;-65
2021/11/17 05:10:42;;;;;;;12.60;6.05;;;;;;;2.88;94.40;100587.91;4968670;28;20520;-64
2021/11/17 05:13:36;;;;;;;11.68;5.38;;;;;;;2.94;93.48;100581.41;4970283;28;20150;-68
2021/11/17 05:16:43;;;;;;;10.75;5.72;;;;;;;2.86;94.99;100584.50;4974158;28;20579;-65
2021/11/17 05:19:42;;;;;;;11.30;5.65;;;;;;;2.91;94.22;100586.88;4968121;28;20054;-64
2021/11/17 05:22:42;;;;;;;13.75;6.22;;;;;;;2.93;93.90;100583.19;4972060;28;20533;-67
2021/11/17 05:25:51;;;;;;;12.05;5.53;;;;;;;3.03;92.99;100583.53;4972021;28;20049;-64
2021/11/17 05:28:51;;;;;;;13.13;6.65;;;;;;;2.85;93.70;100584.59;4972574;28;20062;-65
2021/11/17 05:31:53;;;;;;;13.60;6.25;;;;;;;2.83;93.90;100582.00;4970525;28;20057;-66
2021/11/17 05:34:53;;;;;;;15.50;6.10;;;;;;;2.78;94.86;100583.22;4971037;28;20058;-65
2021/11/17 05:37:50;;;;;;;15.95;6.72;;;;;;;2.79;95.82;100584.94;4969567;28;20182;-64
2021/11/17 05:40:48;;;;;;;15.90;6.65;;;;;;;2.78;95.30;100588.53;4967809;28;20069;-65
2021/11/17 05:43:45;;;;;;;19.83;7.90;;;;;;;2.77;95.17;100592.97;4970237;28;20062;-66
2021/11/17 05:46:47;;;;;;;12.48;6.05;;;;;;;2.79;95.70;100601.69;4972074;28;20062;-65
2021/11/17 05:49:47;;;;;;;17.05;7.82;;;;;;;2.77;95.25;100592.13;4971795;28;20062;-64
2021/11/17 05:52:47;;;;;;;17.50;7.88;;;;;;;2.71;95.96;100589.78;4960601;28;20521;-68
2021/11/17 05:55:48;;;;;;;17.60;7.50;;;;;;;2.71;95.47;100589.78;4965313;28;20092;-67
2021/11/17 05:58:57;;;;;;;15.85;6.97;;;;;;;2.66;96.48;100594.50;4964568;28;20580;-65
2021/11/17 06:02:03;;;;;;;20.20;8.30;;;;;;;2.69;96.16;100592.53;4969447;28;20130;-65
2021/11/17 06:04:48;;;;;;;17.05;6.75;;;;;;;2.63;95.69;100591.09;4955591;28;20070;-67
2021/11/17 06:07:32;;;;;;;18.77;7.32;;;;;;;2.79;94.49;100595.53;4965725;28;20186;-64
2021/11/17 06:10:24;;;;;;;15.55;6.07;;;;;;;2.73;95.50;100591.44;4965718;28;20054;-65
2021/11/17 06:13:12;;;;;;;16.88;7.20;;;;;;;2.72;95.87;100599.44;4965897;28;20131;-64
2021/11/17 06:15:58;;;;;;;15.85;6.68;;;;;;;2.74;95.58;100597.59;4965801;28;20181;-64
2021/11/17 06:18:44;;;;;;;14.13;6.93;;;;;;;2.71;96.89;100601.25;4966097;28;20061;-65
2021/11/17 06:21:29;;;;;;;16.13;6.85;;;;;;;2.69;96.59;100599.63;4965590;28;20053;-65
2021/11/17 06:24:17;;;;;;;14.00;7.07;;;;;;;2.75;96.81;100599.31;4965362;28;20053;-65
2021/11/17 06:27:06;;;;;;;17.30;7.32;;;;;;;2.67;96.35;100599.72;4964760;28;20420;-64
2021/11/17 06:29:53;;;;;;;22.25;7.22;;;;;;;2.67;96.68;100596.22;4966182;28;20712;-67
2021/11/17 06:32:39;;;;;;;17.58;7.38;;;;;;;2.70;96.09;100591.59;4965186;28;20057;-67
2021/11/17 06:35:24;;;;;;;14.18;6.40;;;;;;;2.63;95.69;100585.78;4966293;28;20397;-64
2021/11/17 06:38:10;;;;;;;15.43;6.43;;;;;;;2.63;95.79;100583.16;4966274;28;20132;-65
2021/11/17 06:40:55;;;;;;;;;;;;;;;2.75;95.97;100588.69;4966520;28;20096;-64
2021/11/17 06:43:42;;;;;;;16.77;7.70;;;;;;;2.86;94.99;100586.31;4965577;28;19964;-65
2021/11/17 06:46:27;;;;;;;14.70;5.85;;;;;;;2.86;94.29;100581.00;4965462;28;20193;-66
2021/11/17 06:49:12;;;;;;;15.80;6.10;;;;;;;2.84;94.64;100588.16;4963698;28;20061;-65
2021/11/17 06:51:57;;;;;;;17.02;6.90;;;;;;;2.85;94.60;100597.84;4967723;28;20074;-66
2021/11/17 06:54:42;;;;;;;15.10;6.67;;;;;;;2.92;93.55;100602.69;4968100;28;20054;-66
2021/11/17 06:57:27;;;;;;;15.98;5.95;;;;;;;2.89;94.31;100608.19;4970610;28;20062;-65
2021/11/17 07:00:17;;;;;;;15.07;7.00;;;;;;;2.82;94.80;100606.81;4968438;28;20061;-65
2021/11/17 07:03:02;;;;;;;15.98;6.10;;;;;;;2.81;95.50;100605.09;4972444;28;20053;-66
2021/11/17 07:05:47;;;;;;;12.68;6.00;;;;;;;2.92;95.29;100605.34;4973468;28;20054;-65
2021/11/17 07:08:32;;;;;;;19.42;7.38;;;;;;;2.84;95.02;100609.38;4957308;28;20075;-64
2021/11/17 07:11:17;;;;;;;12.33;6.07;;;;;;;2.88;94.66;100610.94;4954230;29;20057;-65
2021/11/17 07:14:04;;;;;;;17.67;6.68;;;;;;;2.98;94.07;100612.13;4970317;28;20152;-66
2021/11/17 07:16:51;;;;;;;12.32;6.68;;;;;;;2.92;94.23;100615.09;4973171;28;20062;-65
2021/11/17 07:19:36;;;;;;;14.73;6.72;;;;;;;2.88;94.67;100621.53;4973534;28;20053;-66
2021/11/17 07:22:21;;;;;;;14.43;7.07;;;;;;;3.03;94.03;100622.44;4972931;28;20065;-65
2021/11/17 07:25:09;;;;;;;15.18;5.75;;;;;;;2.92;94.86;100625.72;4973240;28;20058;-64
2021/11/17 07:27:55;;;;;;;15.95;6.32;;;;;;;2.98;94.29;100628.03;4973231;28;20058;-65
2021/11/17 07:30:42;;;;;;;19.92;7.05;;;;;;;2.91;94.91;100629.31;4972908;28;20062;-65
2021/11/17 07:33:29;;;;;;;14.85;6.90;;;;;;;2.89;94.74;100631.19;4973437;28;20136;-66
2021/11/17 07:36:16;;;;;;;15.77;6.68;;;;;;;2.88;94.52;100624.19;4972835;28;20421;-65
2021/11/17 07:39:01;;;;;;;16.95;7.38;;;;;;;2.88;95.33;100630.34;4972864;28;20465;-64
2021/11/17 07:41:49;;;;;;;15.30;6.43;;;;;;;2.91;95.37;100616.03;4972851;28;20106;-64
2021/11/17 07:44:34;;;;;;;16.20;7.35;;;;;;;2.87;95.37;100618.03;4972759;28;20057;-65
2021/11/17 07:47:20;;;;;;;17.15;7.18;;;;;;;2.85;95.66;100619.91;4972975;28;20065;-66
2021/11/17 07:50:07;;;;;;;16.35;7.13;;;;;;;2.85;95.34;100619.06;4972830;28;20102;-64
2021/11/17 07:52:52;;;;;;;18.35;7.15;;;;;;;2.97;94.53;100614.88;4973175;28;20166;-65
2021/11/17 07:55:39;;;;;;;15.02;7.22;;;;;;;2.88;95.57;100618.88;4974422;28;20050;-64
2021/11/17 07:58:27;;;;;;;14.57;6.55;;;;;;;2.87;94.95;100620.69;4974008;28;20061;-65
2021/11/17 08:01:13;;;;;;;17.08;7.78;;;;;;;2.84;96.06;100617.31;4972292;28;20413;-65
2021/11/17 08:03:59;;;;;;;17.52;7.40;;;;;;;2.90;95.77;100617.00;4976812;28;20444;-64
2021/11/17 08:06:46;;;;;;;19.53;6.90;;;;;;;3.01;94.35;100613.75;4976359;28;20053;-65
2021/11/17 08:09:32;;;;;;;18.70;7.70;;;;;;;2.94;95.78;100611.41;4970937;28;20198;-64
2021/11/17 08:12:18;;;;;;;16.73;7.80;;;;;;;3.00;95.09;100609.38;4958464;28;20058;-65
2021/11/17 08:15:05;;;;;;;17.17;7.22;;;;;;;3.00;94.85;100612.88;4976448;28;20057;-65
2021/11/17 08:17:50;;;;;;;19.48;7.78;;;;;;;3.03;95.13;100610.03;4976180;28;20529;-65
2021/11/17 08:20:36;;;;;;;21.48;7.82;;;;;;;3.07;95.59;100605.41;4976368;28;20061;-65
2021/11/17 08:23:23;;;;;;;21.73;8.20;;;;;;;3.18;95.06;100606.50;4976442;28;20054;-65
2021/11/17 08:26:09;;;;;;;15.60;7.75;;;;;;;3.19;94.48;100605.56;4975717;28;20073;-66
2021/11/17 08:28:54;;;;;;;;;;;;;;;3.29;94.19;100607.69;4976813;28;20425;-65
2021/11/17 08:31:39;;;;;;;14.40;6.20;;;;;;;3.40;94.25;100607.94;4976692;28;20073;-65
2021/11/17 08:34:24;;;;;;;20.08;7.95;;;;;;;3.31;93.72;100596.03;4976128;28;20062;-65
2021/11/17 08:37:09;;;;;;;20.40;8.88;;;;;;;3.42;93.03;100590.97;4975755;28;20054;-65
2021/11/17 08:39:56;;;;;;;18.92;7.63;;;;;;;3.45;92.84;100595.25;4975858;28;20074;-67
2021/11/17 08:42:42;;;;;;;16.45;7.50;;;;;;;3.55;92.92;100593.75;4975535;28;20105;-65
2021/11/17 08:45:28;;;;;;;14.83;6.73;;;;;;;3.50;93.19;100602.00;4975912;28;20574;-64
2021/11/17 08:48:13;;;;;;;18.40;8.10;;;;;;;3.68;91.26;100601.84;4975777;28;20065;-66
2021/11/17 08:51:01;;;;;;;17.15;8.20;;;;;;;3.66;91.04;100599.28;4975756;28;20057;-64
2021/11/17 08:53:50;;;;;;;16.00;7.93;;;;;;;3.80;89.27;100604.63;4975856;28;20086;-64
2021/11/17 08:56:37;;;;;;;20.85;7.32;;;;;;;3.69;90.96;100603.56;4975648;28;20201;-65
2021/11/17 08:59:23;;;;;;;15.38;7.80;;;;;;;3.60;91.71;100610.28;4975556;28;20197;-66
2021/11/17 09:02:08;;;;;;;20.13;8.75;;;;;;;3.57;92.50;100610.47;4975576;28;20154;-65
2021/11/17 09:04:53;;;;;;;17.88;8.07;;;;;;;3.80;90.52;100609.94;4975271;28;20633;-65
2021/11/17 09:07:39;;;;;;;14.20;6.53;;;;;;;3.79;90.81;100621.50;4975436;28;20203;-65
2021/11/17 09:10:25;;;;;;;;;;;;;;;3.65;90.36;100615.28;4976319;28;20140;-65
2021/11/17 09:13:12;;;;;;;18.42;6.85;;;;;;;3.58;91.47;100612.16;4975307;28;19980;-65
2021/11/17 09:15:59;;;;;;;18.40;7.35;;;;;;;3.50;90.52;100607.28;4955726;29;20054;-65
2021/11/17 09:18:44;;;;;;;19.65;8.02;;;;;;;3.57;91.56;100613.13;4954257;29;20058;-65
2021/11/17 09:21:33;;;;;;;13.98;6.70;;;;;;;3.48;92.02;100613.66;4957402;28;20528;-65
2021/11/17 09:24:21;;;;;;;15.23;6.60;;;;;;;3.57;91.76;100604.28;4966995;28;20205;-66
2021/11/17 09:27:07;;;;;;;16.90;7.28;;;;;;;3.59;92.18;100602.41;4968370;28;20046;-64
2021/11/17 09:29:53;;;;;;;17.60;6.53;;;;;;;3.75;91.53;100601.38;4976080;28;20070;-63
2021/11/17 09:32:39;;;;;;;16.67;7.93;;;;;;;3.98;90.48;100599.13;4975988;28;20528;-62
2021/11/17 09:35:27;;;;;;;16.27;6.93;;;;;;;3.96;90.90;100587.75;4976154;28;20065;-65
2021/11/17 09:38:14;;;;;;;17.05;7.13;;;;;;;3.93;90.58;100594.13;4976186;28;20587;-64
2021/11/17 09:41:03;;;;;;;17.48;7.40;;;;;;;3.92;90.09;100586.25;4975734;28;20057;-63
2021/11/17 09:43:52;;;;;;;14.88;8.68;;;;;;;4.04;89.77;100589.00;4975606;28;20054;-62
2021/11/17 09:46:40;;;;;;;16.45;7.72;;;;;;;4.19;89.55;100589.00;4975662;28;20049;-64
2021/11/17 09:49:30;;;;;;;14.50;7.00;;;;;;;4.26;88.89;100590.31;4974864;28;20523;-65
2021/11/17 09:52:18;;;;;;;15.52;6.20;;;;;;;4.27;88.25;100595.56;4974954;28;20496;-65
2021/11/17 09:55:09;;;;;;;17.70;6.78;;;;;;;4.38;87.58;100598.41;4975514;28;20054;-65
2021/11/17 09:57:59;;;;;;;14.70;6.75;;;;;;;4.35;87.00;100593.25;4977015;28;20401;-63
2021/11/17 10:00:48;;;;;;;14.75;7.70;;;;;;;4.10;88.07;100580.66;4976527;28;20065;-63
2021/11/17 10:03:37;;;;;;;12.63;5.88;;;;;;;4.10;87.98;100577.13;4977399;28;20197;-62
2021/11/17 10:15:28;;;;;;;12.73;6.38;;;;;;;4.28;87.45;100570.69;4970190;28;20097;-63
2021/11/17 10:18:45;;;;;;;11.98;6.35;;;;;;;4.31;87.50;100569.63;4973838;28;20066;-63
2021/11/17 10:21:36;;;;;;;11.87;5.53;;;;;;;4.46;86.59;100573.13;4974419;28;20138;-63
2021/11/17 10:24:21;;;;;;;13.85;6.13;;;;;;;4.41;87.02;100578.75;4973701;28;20540;-62
2021/11/17 10:27:07;;;;;;;13.75;7.10;;;;;;;4.32;86.75;100571.34;4973307;28;20635;-62
2021/11/17 10:29:57;;;;;;;15.82;7.05;;;;;;;4.36;87.43;100570.19;4973898;28;20162;-62
2021/11/17 10:32:47;;;;;;;12.30;6.25;;;;;;;4.26;87.90;100567.28;4973647;28;20062;-62
2021/11/17 10:35:35;;;;;;;13.90;6.53;;;;;;;4.27;87.50;100574.31;4973646;28;20057;-64
2021/11/17 10:38:26;;;;;;;15.27;6.90;;;;;;;4.45;87.13;100571.41;4973497;28;20528;-63
2021/11/17 10:41:21;;;;;;;13.82;5.97;;;;;;;4.46;86.67;100568.66;4973534;28;20105;-62
2021/11/17 10:44:10;;;;;;;14.63;6.47;;;;;;;4.26;88.97;100567.28;4966135;28;20058;-63
2021/11/17 10:47:00;;;;;;;14.10;6.90;;;;;;;4.49;87.32;100556.97;4946597;29;20126;-64
2021/11/17 10:49:47;;;;;;;12.45;6.13;;;;;;;4.45;88.43;100566.09;4954065;29;20425;-62
2021/11/17 10:52:39;;;;;;;14.60;6.80;;;;;;;4.36;87.96;100567.53;4954392;29;20557;-66
2021/11/17 10:55:30;;;;;;;15.70;6.75;;;;;;;4.64;87.10;100561.34;4954140;29;20339;-61
2021/11/17 10:58:18;;;;;;;10.90;5.68;;;;;;;4.75;86.18;100561.50;4954198;29;20141;-63
2021/11/17 11:01:13;;;;;;;11.43;5.60;;;;;;;4.80;87.14;100562.03;4954090;29;20066;-63
2021/11/17 11:04:01;;;;;;;10.73;5.70;;;;;;;4.96;84.96;100568.06;4954105;29;20062;-62
2021/11/17 11:06:49;;;;;;;12.63;6.43;;;;;;;4.83;84.94;100567.16;4953671;29;20530;-63
2021/11/17 11:09:44;;;;;;;10.88;5.63;;;;;;;5.16;84.46;100560.56;4954029;29;20518;-62
2021/11/17 11:12:33;;;;;;;11.95;6.00;;;;;;;4.88;85.14;100566.88;4953335;29;20054;-61
2021/11/17 11:15:22;;;;;;;13.30;6.00;;;;;;;5.11;84.75;100555.56;4954339;29;20054;-64
2021/11/17 11:18:28;;;;;;;14.55;6.10;;;;;;;5.30;84.14;100560.50;4953838;28;20527;-62
2021/11/17 11:21:17;;;;;;;10.67;5.67;;;;;;;5.42;84.29;100562.34;4953780;29;20467;-61
2021/11/17 11:24:25;;;;;;;9.95;4.53;;;;;;;5.54;82.59;100555.31;4953961;29;20434;-62
2021/11/17 11:27:27;;;;;;;9.80;4.47;;;;;;;5.69;81.67;100570.28;4953365;28;20074;-60
2021/11/17 11:30:38;;;;;;;8.15;4.88;;;;;;;5.59;81.96;100569.19;4957627;29;20129;-62
2021/11/17 11:33:29;;;;;;;8.13;3.72;;;;;;;5.59;80.99;100571.88;4957713;29;20477;-63
2021/11/17 11:36:43;;;;;;;7.47;4.15;;;;;;;5.42;82.12;100569.47;4957275;29;20652;-62
2021/11/17 11:39:32;;;;;;;7.45;3.75;;;;;;;5.48;81.49;100556.59;4957712;29;20122;-63
2021/11/17 11:42:40;;;;;;;9.85;4.47;;;;;;;5.32;82.17;100573.69;4957553;29;20593;-62
2021/11/17 11:45:40;;;;;;;10.57;3.97;;;;;;;5.37;83.25;100567.13;4957082;28;20199;-60
2021/11/17 11:49:05;;;;;;;7.45;4.10;;;;;;;5.23;82.77;100557.41;4938798;29;20059;-63
2021/11/17 11:52:27;;;;;;;9.75;4.05;;;;;;;5.23;83.32;100567.22;4938289;29;20115;-61
2021/11/17 11:55:17;;;;;;;7.50;3.75;;;;;;;5.51;82.18;100560.88;4937998;29;20199;-62
2021/11/17 11:58:35;;;;;;;8.55;4.47;;;;;;;5.48;82.37;100558.41;4937873;29;20615;-62
2021/11/17 12:01:24;;;;;;;6.85;3.50;;;;;;;5.79;81.00;100552.69;4938111;29;20430;-61
2021/11/17 12:04:15;;;;;;;7.85;4.07;;;;;;;5.76;80.01;100562.69;4937782;29;20107;-61
2021/11/17 12:07:05;;;;;;;7.78;3.50;;;;;;;5.90;79.99;100559.97;4937900;29;20188;-63
2021/11/17 12:10:01;;;;;;;8.70;4.03;;;;;;;5.78;81.26;100552.78;4937928;29;20065;-64
2021/11/17 12:12:47;;;;;;;7.40;4.15;;;;;;;5.96;79.87;100548.03;4942981;28;20054;-63
2021/11/17 12:15:35;;;;;;;6.35;3.58;;;;;;;5.88;80.08;100545.88;4954498;29;20098;-63
2021/11/17 12:18:22;;;;;;;6.38;3.35;;;;;;;6.14;79.08;100547.59;4956845;29;20125;-62
2021/11/17 12:21:10;;;;;;;5.95;3.63;;;;;;;6.12;78.57;100546.84;4956824;29;20182;-62
2021/11/17 12:24:06;;;;;;;8.50;4.05;;;;;;;5.81;80.87;100542.78;4956994;29;20058;-63
2021/11/17 12:27:00;;;;;;;8.23;3.83;;;;;;;5.90;79.57;100537.75;4956626;29;20567;-62
2021/11/17 12:29:54;;;;;;;7.68;3.75;;;;;;;5.78;80.57;100547.47;4956893;29;20059;-61
2021/11/17 12:32:51;;;;;;;6.15;3.47;;;;;;;5.87;80.22;100542.34;4957061;29;20061;-63
2021/11/17 12:35:42;;;;;;;6.50;3.30;;;;;;;5.92;79.03;100533.22;4956466;29;20537;-63
2021/11/17 12:38:29;;;;;;;6.50;3.28;;;;;;;6.13;79.32;100507.72;4957305;29;20058;-63
2021/11/17 12:41:19;;;;;;;7.60;3.30;;;;;;;6.17;79.34;100521.69;4956074;29;20058;-62
2021/11/17 12:44:07;;;;;;;6.32;3.40;;;;;;;6.64;77.78;100535.13;4956423;29;20062;-64
2021/11/17 12:47:02;;;;;;;6.28;3.20;;;;;;;6.69;76.54;100535.63;4955933;29;20130;-63
2021/11/17 12:49:50;;;;;;;6.53;3.63;;;;;;;6.61;77.21;100535.31;4956463;29;20629;-64
2021/11/17 12:52:40;;;;;;;6.07;3.20;;;;;;;6.07;78.91;100526.81;4956207;29;20062;-62
2021/11/17 12:55:30;;;;;;;7.20;4.03;;;;;;;6.05;78.63;100521.63;4956241;29;20183;-62
2021/11/17 12:58:24;;;;;;;6.18;3.03;;;;;;;6.25;78.83;100521.97;4956334;28;20062;-62
2021/11/17 13:01:18;;;;;;;6.63;3.13;;;;;;;6.06;78.84;100523.31;4956121;29;20186;-61
2021/11/17 13:04:16;;;;;;;5.53;3.17;;;;;;;6.27;78.98;100538.72;4956349;29;20095;-62
2021/11/17 13:07:05;;;;;;;8.50;3.88;;;;;;;6.17;78.44;100545.69;4955931;29;20050;-62
2021/11/17 13:09:59;;;;;;;7.05;3.58;;;;;;;6.27;77.58;100531.56;4955879;29;20061;-62
2021/11/17 13:12:44;;;;;;;6.28;3.00;;;;;;;6.10;78.90;100535.44;4951186;29;20430;-61
2021/11/17 13:15:39;;;;;;;7.53;3.57;;;;;;;6.12;79.00;100538.00;4943015;29;20066;-61
2021/11/17 13:18:28;;;;;;;13.20;5.05;;;;;;;6.25;78.80;100535.31;4955977;28;20113;-66
2021/11/17 13:21:28;;;;;;;7.93;3.28;;;;;;;6.15;79.31;100537.78;4955559;29;20054;-63
2021/11/17 13:24:29;;;;;;;5.15;2.67;;;;;;;6.19;78.89;100536.63;4955949;29;20102;-64
2021/11/17 13:27:40;;;;;;;7.47;3.83;;;;;;;6.38;77.66;100536.97;4955358;29;20426;-62
2021/11/17 13:30:36;;;;;;;14.60;5.38;;;;;;;6.40;78.80;100537.75;4955757;29;20062;-63
2021/11/17 13:33:25;;;;;;;8.10;3.27;;;;;;;6.60;77.95;100530.09;4955800;29;20062;-63
2021/11/17 13:36:13;;;;;;;6.78;2.90;;;;;;;6.50;78.47;100526.41;4955370;29;20345;-62
2021/11/17 13:39:00;;;;;;;6.57;3.55;;;;;;;6.36;78.68;100535.41;4955627;29;20058;-61
2021/11/17 13:41:47;;;;;;;6.80;2.67;;;;;;;6.38;78.47;100520.13;4955704;29;20062;-64
2021/11/17 13:44:34;;;;;;;7.82;3.65;;;;;;;6.28;77.91;100517.31;4955207;29;20065;-64
2021/11/17 13:47:22;;;;;;;6.30;3.53;;;;;;;6.20;78.97;100513.47;4954790;29;20058;-62
2021/11/17 13:50:10;;;;;;;5.85;3.38;;;;;;;6.19;78.69;100511.78;4955669;29;20058;-62
2021/11/17 13:52:57;;;;;;;7.68;3.80;;;;;;;6.06;80.30;100517.97;4954768;29;20067;-63
2021/11/17 13:55:46;;;;;;;15.30;5.80;;;;;;;6.04;79.85;100513.72;4955278;28;20070;-63
2021/11/17 13:58:32;;;;;;;6.50;3.00;;;;;;;6.02;79.91;100516.47;4955240;29;20593;-63
2021/11/17 14:01:20;;;;;;;6.47;3.35;;;;;;;6.01;80.28;100514.78;4955061;29;20114;-62
2021/11/17 14:04:05;;;;;;;6.70;2.85;;;;;;;6.02;80.31;100516.47;4955235;29;20532;-64
2021/11/17 14:06:51;;;;;;;5.22;2.63;;;;;;;6.07;80.01;100516.16;4955064;29;20059;-61
2021/11/17 14:09:36;;;;;;;6.57;2.85;;;;;;;6.11;80.71;100513.16;4954922;29;20055;-63
2021/11/17 14:12:21;;;;;;;7.72;2.40;;;;;;;6.07;80.27;100511.69;4953457;29;20062;-63
2021/11/17 14:15:08;;;;;;;5.40;2.75;;;;;;;6.11;79.41;100509.66;4938952;29;20073;-62
2021/11/17 14:17:55;;;;;;;6.35;3.33;;;;;;;5.92;79.76;100518.13;4946773;29;20235;-61
2021/11/17 14:20:41;;;;;;;5.80;3.05;;;;;;;5.97;79.74;100502.63;4950147;29;20114;-62
2021/11/17 14:23:27;;;;;;;5.93;2.85;;;;;;;5.98;80.38;100509.66;4953368;28;20062;-64
2021/11/17 14:26:16;;;;;;;9.48;2.97;;;;;;;5.82;80.43;100509.03;4950161;28;20571;-61
2021/11/17 14:29:06;;;;;;;6.68;3.08;;;;;;;5.90;80.74;100501.34;4950318;29;20441;-62
2021/11/17 14:31:54;;;;;;;6.20;2.85;;;;;;;5.82;80.62;100520.53;4952980;28;20066;-62
2021/11/17 14:34:41;;;;;;;6.22;2.95;;;;;;;5.81;81.27;100513.50;4943259;28;20046;-62
2021/11/17 14:37:27;;;;;;;5.45;2.47;;;;;;;5.71;82.13;100520.41;4950664;29;20062;-62
2021/11/17 14:40:16;;;;;;;7.07;3.47;;;;;;;5.85;80.53;100527.44;4952791;28;20051;-62
2021/11/17 14:43:01;;;;;;;9.30;4.47;;;;;;;5.71;81.49;100532.88;4952725;29;20418;-63
2021/11/17 14:45:47;;;;;;;6.72;3.88;;;;;;;5.79;81.62;100535.84;4951475;29;20053;-62
2021/11/17 14:48:33;;;;;;;6.85;3.78;;;;;;;5.79;82.02;100538.50;4947784;29;20185;-62
2021/11/17 14:51:19;;;;;;;7.37;2.80;;;;;;;5.90;81.19;100538.66;4942622;29;20199;-65
2021/11/17 14:54:04;;;;;;;6.72;3.17;;;;;;;5.81;81.85;100539.28;4941777;28;20815;-62
2021/11/17 14:56:49;;;;;;;5.80;3.03;;;;;;;5.82;82.20;100541.00;4943082;28;20573;-64
2021/11/17 14:59:35;;;;;;;6.18;3.08;;;;;;;5.77;81.80;100543.94;4945079;28;20058;-63
2021/11/17 15:02:21;;;;;;;;;;;;;;;5.69;82.88;100548.13;4945991;28;20054;-62
2021/11/17 15:05:08;;;;;;;7.18;3.75;;;;;;;5.69;83.07;100551.63;4945284;28;19929;-63
2021/11/17 15:07:54;;;;;;;7.45;4.00;;;;;;;5.59;83.88;100550.56;4946059;29;20109;-63
2021/11/17 15:10:40;;;;;;;8.18;4.10;;;;;;;5.48;84.54;100540.63;4944460;29;20049;-63
2021/11/17 15:13:25;;;;;;;8.20;4.40;;;;;;;5.47;84.56;100554.91;4945290;28;20062;-62
2021/11/17 15:16:11;;;;;;;9.48;4.68;;;;;;;5.45;85.28;100540.84;4946995;29;20058;-63
2021/11/17 15:18:56;;;;;;;11.75;5.50;;;;;;;5.34;85.29;100545.19;4944708;28;20050;-63
2021/11/17 15:21:41;;;;;;;8.55;3.60;;;;;;;5.23;86.68;100551.25;4947154;29;20199;-63
2021/11/17 15:24:29;;;;;;;8.25;4.22;;;;;;;5.18;87.01;100545.34;4945993;28;20061;-62
2021/11/17 15:27:33;;;;;;;10.32;4.47;;;;;;;5.07;87.34;100539.88;4945395;29;20058;-62
2021/11/17 15:30:22;;;;;;;8.32;3.88;;;;;;;5.13;87.77;100537.69;4946002;29;20058;-64
2021/11/17 15:33:09;;;;;;;8.23;4.28;;;;;;;5.23;87.17;100535.28;4947287;29;20532;-62
2021/11/17 15:35:54;;;;;;;7.72;3.85;;;;;;;5.24;87.38;100531.66;4945153;29;20199;-62
2021/11/17 15:38:40;;;;;;;9.02;3.80;;;;;;;5.16;87.73;100541.94;4944435;29;20417;-63
2021/11/17 15:41:28;;;;;;;8.95;3.67;;;;;;;5.17;87.81;100525.03;4947663;28;20070;-63
2021/11/17 15:44:14;;;;;;;9.85;4.45;;;;;;;5.16;87.83;100515.34;4946784;29;20058;-63
2021/11/17 15:47:02;;;;;;;8.85;3.95;;;;;;;5.12;88.14;100513.84;4945273;28;20105;-63
2021/11/17 15:49:47;;;;;;;8.32;3.95;;;;;;;5.02;89.05;100516.25;4945357;29;20102;-63
2021/11/17 15:52:33;;;;;;;8.63;3.63;;;;;;;5.15;88.91;100530.44;4946249;29;20066;-62
2021/11/17 15:55:19;;;;;;;9.07;4.03;;;;;;;5.18;88.79;100524.91;4947269;29;20059;-62
2021/11/17 15:58:05;;;;;;;8.25;3.95;;;;;;;5.22;88.11;100514.94;4944578;29;20054;-61
2021/11/17 16:00:51;;;;;;;9.80;4.43;;;;;;;5.20;88.11;100522.16;4945003;29;20063;-63
2021/11/17 16:03:37;;;;;;;7.68;3.70;;;;;;;5.12;88.95;100520.03;4946853;29;20054;-62